sensor_id;sensor_type;location;lat;lon;timestamp;pressure;altitude;pressure_sealevel;temperature;humidity
5812;BME280;2932;52.400;9.558;2023-05-10T00:00:26;100100.66;;;19.55;47.57
5812;BME280;2932;52.400;9.558;2023-05-10T00:02:51;100103.31;;;19.65;47.80
5812;BME280;2932;52.400;9.558;2023-05-10T00:05:17;100098.34;;;19.77;47.59
5812;BME280;2932;52.400;9.558;2023-05-10T00:07:43;100101.06;;;19.84;47.33
5812;BME280;2932;52.400;9.558;2023-05-10T00:10:10;100103.88;;;19.84;47.32
5812;BME280;2932;52.400;9.558;2023-05-10T00:12:35;100097.03;;;19.85;47.42
5812;BME280;2932;52.400;9.558;2023-05-10T00:15:01;100104.22;;;19.89;47.03
5812;BME280;2932;52.400;9.558;2023-05-10T00:17:28;100095.91;;;19.79;47.40
5812;BME280;2932;52.400;9.558;2023-05-10T00:19:53;100095.16;;;19.75;47.24
5812;BME280;2932;52.400;9.558;2023-05-10T00:22:19;100094.75;;;19.76;47.51
5812;BME280;2932;52.400;9.558;2023-05-10T00:24:45;100090.72;;;19.77;47.65
5812;BME280;2932;52.400;9.558;2023-05-10T00:27:10;100093.06;;;19.82;47.25
5812;BME280;2932;52.400;9.558;2023-05-10T00:29:35;100079.88;;;19.79;47.52
5812;BME280;2932;52.400;9.558;2023-05-10T00:32:01;100084.50;;;19.62;47.64
5812;BME280;2932;52.400;9.558;2023-05-10T00:34:26;100084.06;;;19.64;48.25
5812;BME280;2932;52.400;9.558;2023-05-10T00:36:52;100082.88;;;19.65;47.68
5812;BME280;2932;52.400;9.558;2023-05-10T00:39:17;100076.75;;;19.74;47.82
5812;BME280;2932;52.400;9.558;2023-05-10T00:41:42;100081.66;;;19.66;48.06
5812;BME280;2932;52.400;9.558;2023-05-10T00:44:08;100075.19;;;19.69;47.51
5812;BME280;2932;52.400;9.558;2023-05-10T00:46:33;100078.31;;;19.75;47.68
5812;BME280;2932;52.400;9.558;2023-05-10T00:48:59;100071.88;;;19.78;47.80
5812;BME280;2932;52.400;9.558;2023-05-10T00:51:24;100076.88;;;19.63;48.04
5812;BME280;2932;52.400;9.558;2023-05-10T00:53:50;100076.16;;;19.59;48.26
5812;BME280;2932;52.400;9.558;2023-05-10T00:56:16;100079.69;;;19.63;47.87
5812;BME280;2932;52.400;9.558;2023-05-10T00:58:42;100080.91;;;19.62;48.25
5812;BME280;2932;52.400;9.558;2023-05-10T01:01:08;100073.66;;;19.64;48.15
5812;BME280;2932;52.400;9.558;2023-05-10T01:03:36;100082.66;;;19.52;48.56
5812;BME280;2932;52.400;9.558;2023-05-10T01:06:01;100074.22;;;19.52;48.70
5812;BME280;2932;52.400;9.558;2023-05-10T01:08:28;100072.28;;;19.46;48.58
5812;BME280;2932;52.400;9.558;2023-05-10T01:10:54;100065.22;;;19.30;48.85
5812;BME280;2932;52.400;9.558;2023-05-10T01:15:51;100064.47;;;19.60;49.13
5812;BME280;2932;52.400;9.558;2023-05-10T01:18:19;100064.84;;;19.62;49.21
5812;BME280;2932;52.400;9.558;2023-05-10T01:20:48;100064.13;;;19.58;49.41
5812;BME280;2932;52.400;9.558;2023-05-10T01:34:38;100070.59;;;19.55;51.93
5812;BME280;2932;52.400;9.558;2023-05-10T01:37:10;100068.03;;;19.64;53.09
5812;BME280;2932;52.400;9.558;2023-05-10T01:39:46;100069.66;;;19.62;53.71
5812;BME280;2932;52.400;9.558;2023-05-10T01:42:21;100067.47;;;19.46;53.70
5812;BME280;2932;52.400;9.558;2023-05-10T01:45:08;100070.72;;;19.41;53.12
5812;BME280;2932;52.400;9.558;2023-05-10T01:47:46;100063.91;;;19.42;52.49
5812;BME280;2932;52.400;9.558;2023-05-10T01:50:18;100066.06;;;19.27;52.71
5812;BME280;2932;52.400;9.558;2023-05-10T01:52:48;100058.00;;;19.33;52.71
5812;BME280;2932;52.400;9.558;2023-05-10T01:55:16;100052.41;;;19.29;51.51
5812;BME280;2932;52.400;9.558;2023-05-10T01:57:44;100059.13;;;19.39;50.94
5812;BME280;2932;52.400;9.558;2023-05-10T02:00:12;100053.94;;;19.38;50.63
5812;BME280;2932;52.400;9.558;2023-05-10T02:02:41;100054.34;;;19.36;51.00
5812;BME280;2932;52.400;9.558;2023-05-10T02:05:08;100063.19;;;19.35;50.95
5812;BME280;2932;52.400;9.558;2023-05-10T02:07:35;100062.75;;;19.36;50.53
5812;BME280;2932;52.400;9.558;2023-05-10T02:10:03;100063.56;;;19.37;50.53
5812;BME280;2932;52.400;9.558;2023-05-10T02:12:31;100073.19;;;19.36;50.67
5812;BME280;2932;52.400;9.558;2023-05-10T02:15:00;100065.31;;;19.23;50.83
5812;BME280;2932;52.400;9.558;2023-05-10T02:17:28;100063.56;;;19.37;50.57
5812;BME280;2932;52.400;9.558;2023-05-10T02:19:56;100063.16;;;19.38;50.70
5812;BME280;2932;52.400;9.558;2023-05-10T02:22:22;100066.41;;;19.33;50.71
5812;BME280;2932;52.400;9.558;2023-05-10T02:24:49;100066.31;;;19.40;50.58
5812;BME280;2932;52.400;9.558;2023-05-10T02:27:15;100061.28;;;19.24;50.83
5812;BME280;2932;52.400;9.558;2023-05-10T02:29:42;100061.00;;;19.19;51.09
5812;BME280;2932;52.400;9.558;2023-05-10T02:32:09;100055.31;;;19.22;51.28
5812;BME280;2932;52.400;9.558;2023-05-10T02:34:36;100052.91;;;19.21;51.41
5812;BME280;2932;52.400;9.558;2023-05-10T02:37:02;100053.44;;;19.12;51.47
5812;BME280;2932;52.400;9.558;2023-05-10T02:39:29;100064.63;;;19.16;51.24
5812;BME280;2932;52.400;9.558;2023-05-10T02:41:56;100056.25;;;19.12;51.26
5812;BME280;2932;52.400;9.558;2023-05-10T02:44:22;100054.59;;;19.18;51.44
5812;BME280;2932;52.400;9.558;2023-05-10T02:46:48;100052.66;;;19.12;51.25
5812;BME280;2932;52.400;9.558;2023-05-10T02:49:15;100046.66;;;19.10;51.44
5812;BME280;2932;52.400;9.558;2023-05-10T02:51:43;100041.66;;;19.24;51.13
5812;BME280;2932;52.400;9.558;2023-05-10T02:54:17;100050.50;;;19.23;51.62
5812;BME280;2932;52.400;9.558;2023-05-10T02:56:47;100052.13;;;19.20;51.61
5812;BME280;2932;52.400;9.558;2023-05-10T02:59:15;100050.50;;;19.23;51.61
5812;BME280;2932;52.400;9.558;2023-05-10T03:01:40;100043.66;;;19.24;51.51
5812;BME280;2932;52.400;9.558;2023-05-10T03:04:06;100035.63;;;19.26;52.10
5812;BME280;2932;52.400;9.558;2023-05-10T03:06:31;100035.78;;;19.15;51.91
5812;BME280;2932;52.400;9.558;2023-05-10T03:08:56;100045.41;;;19.14;52.57
5812;BME280;2932;52.400;9.558;2023-05-10T03:14:32;100042.88;;;19.23;52.67
5812;BME280;2932;52.400;9.558;2023-05-10T03:17:06;100038.97;;;19.17;52.23
5812;BME280;2932;52.400;9.558;2023-05-10T03:22:10;100038.91;;;19.21;52.14
5812;BME280;2932;52.400;9.558;2023-05-10T03:24:36;100038.59;;;19.15;52.49
5812;BME280;2932;52.400;9.558;2023-05-10T03:27:03;100038.06;;;19.24;52.25
5812;BME280;2932;52.400;9.558;2023-05-10T03:29:31;100037.31;;;19.20;52.53
5812;BME280;2932;52.400;9.558;2023-05-10T03:32:00;100044.50;;;19.21;52.45
5812;BME280;2932;52.400;9.558;2023-05-10T03:34:25;100045.78;;;19.16;52.63
5812;BME280;2932;52.400;9.558;2023-05-10T03:36:51;100038.31;;;19.03;52.50
5812;BME280;2932;52.400;9.558;2023-05-10T03:39:17;100039.69;;;19.21;52.30
5812;BME280;2932;52.400;9.558;2023-05-10T03:41:42;100042.56;;;19.18;52.03
5812;BME280;2932;52.400;9.558;2023-05-10T03:44:07;100041.06;;;19.10;52.43
5812;BME280;2932;52.400;9.558;2023-05-10T03:46:33;100035.75;;;19.19;52.36
5812;BME280;2932;52.400;9.558;2023-05-10T03:48:58;100035.56;;;18.99;52.62
5812;BME280;2932;52.400;9.558;2023-05-10T03:51:24;100024.66;;;19.08;52.89
5812;BME280;2932;52.400;9.558;2023-05-10T03:53:55;100024.66;;;19.08;53.09
5812;BME280;2932;52.400;9.558;2023-05-10T03:56:21;100026.16;;;19.16;52.89
5812;BME280;2932;52.400;9.558;2023-05-10T03:58:46;100035.16;;;19.01;52.35
5812;BME280;2932;52.400;9.558;2023-05-10T04:01:12;100030.03;;;18.92;52.85
5812;BME280;2932;52.400;9.558;2023-05-10T04:03:37;100024.84;;;18.90;53.26
5812;BME280;2932;52.400;9.558;2023-05-10T04:06:03;100035.22;;;18.93;53.37
5812;BME280;2932;52.400;9.558;2023-05-10T04:08:29;100040.41;;;18.95;53.44
5812;BME280;2932;52.400;9.558;2023-05-10T04:10:54;100044.03;;;18.92;53.36
5812;BME280;2932;52.400;9.558;2023-05-10T04:13:20;100044.69;;;18.69;54.06
5812;BME280;2932;52.400;9.558;2023-05-10T04:15:45;100043.97;;;18.58;54.71
5812;BME280;2932;52.400;9.558;2023-05-10T04:18:11;100044.41;;;18.53;54.81
5812;BME280;2932;52.400;9.558;2023-05-10T04:20:36;100034.66;;;18.72;54.72
5812;BME280;2932;52.400;9.558;2023-05-10T04:23:02;100036.50;;;18.85;54.20
5812;BME280;2932;52.400;9.558;2023-05-10T04:25:27;100047.22;;;18.94;54.26
5812;BME280;2932;52.400;9.558;2023-05-10T04:27:52;100041.00;;;18.79;54.61
5812;BME280;2932;52.400;9.558;2023-05-10T04:30:18;100039.84;;;18.73;54.90
5812;BME280;2932;52.400;9.558;2023-05-10T04:32:43;100054.75;;;18.59;55.34
5812;BME280;2932;52.400;9.558;2023-05-10T04:35:08;100053.19;;;18.55;56.12
5812;BME280;2932;52.400;9.558;2023-05-10T04:37:35;100047.94;;;18.64;56.29
5812;BME280;2932;52.400;9.558;2023-05-10T04:40:02;100046.34;;;18.63;57.05
5812;BME280;2932;52.400;9.558;2023-05-10T04:42:28;100047.72;;;18.85;56.53
5812;BME280;2932;52.400;9.558;2023-05-10T04:44:53;100045.75;;;18.82;56.28
5812;BME280;2932;52.400;9.558;2023-05-10T04:47:19;100044.22;;;18.78;57.12
5812;BME280;2932;52.400;9.558;2023-05-10T04:49:45;100047.34;;;18.83;57.33
5812;BME280;2932;52.400;9.558;2023-05-10T04:52:10;100052.50;;;18.88;57.36
5812;BME280;2932;52.400;9.558;2023-05-10T04:54:36;100061.81;;;18.78;57.73
5812;BME280;2932;52.400;9.558;2023-05-10T04:57:02;100073.94;;;18.68;57.93
5812;BME280;2932;52.400;9.558;2023-05-10T04:59:27;100083.88;;;18.21;59.08
5812;BME280;2932;52.400;9.558;2023-05-10T05:01:52;100086.56;;;18.39;59.38
5812;BME280;2932;52.400;9.558;2023-05-10T05:04:18;100085.06;;;18.27;59.72
5812;BME280;2932;52.400;9.558;2023-05-10T05:06:43;100087.88;;;18.23;60.44
5812;BME280;2932;52.400;9.558;2023-05-10T05:09:08;100096.72;;;17.27;63.09
5812;BME280;2932;52.400;9.558;2023-05-10T05:11:35;100113.97;;;16.16;68.91
5812;BME280;2932;52.400;9.558;2023-05-10T05:14:00;100113.44;;;15.67;71.20
5812;BME280;2932;52.400;9.558;2023-05-10T05:16:26;100122.41;;;15.29;72.54
5812;BME280;2932;52.400;9.558;2023-05-10T05:18:51;100129.88;;;15.11;72.96
5812;BME280;2932;52.400;9.558;2023-05-10T05:21:18;100140.16;;;15.76;73.42
5812;BME280;2932;52.400;9.558;2023-05-10T05:23:43;100130.75;;;16.37;72.13
5812;BME280;2932;52.400;9.558;2023-05-10T05:26:09;100128.34;;;16.53;70.50
5812;BME280;2932;52.400;9.558;2023-05-10T05:28:35;100122.78;;;16.92;70.11
5812;BME280;2932;52.400;9.558;2023-05-10T05:31:03;100121.88;;;17.34;69.41
5812;BME280;2932;52.400;9.558;2023-05-10T05:33:28;100120.66;;;17.39;68.15
5812;BME280;2932;52.400;9.558;2023-05-10T05:35:54;100119.50;;;17.26;67.78
5812;BME280;2932;52.400;9.558;2023-05-10T05:38:20;100118.28;;;17.30;67.40
5812;BME280;2932;52.400;9.558;2023-05-10T05:40:45;100117.03;;;17.53;67.48
5812;BME280;2932;52.400;9.558;2023-05-10T05:43:11;100124.63;;;17.56;67.52
5812;BME280;2932;52.400;9.558;2023-05-10T05:45:36;100123.81;;;17.59;68.08
5812;BME280;2932;52.400;9.558;2023-05-10T05:48:01;100129.38;;;17.70;67.82
5812;BME280;2932;52.400;9.558;2023-05-10T05:50:27;100133.31;;;17.79;68.10
5812;BME280;2932;52.400;9.558;2023-05-10T05:52:52;100134.13;;;17.76;67.68
5812;BME280;2932;52.400;9.558;2023-05-10T05:55:17;100131.31;;;17.80;68.21
5812;BME280;2932;52.400;9.558;2023-05-10T05:57:43;100141.69;;;17.86;67.64
5812;BME280;2932;52.400;9.558;2023-05-10T06:00:08;100143.75;;;17.72;67.91
5812;BME280;2932;52.400;9.558;2023-05-10T06:02:34;100145.72;;;17.75;68.30
5812;BME280;2932;52.400;9.558;2023-05-10T06:04:59;100148.94;;;17.62;68.88
5812;BME280;2932;52.400;9.558;2023-05-10T06:07:24;100151.75;;;17.73;68.93
5812;BME280;2932;52.400;9.558;2023-05-10T06:09:50;100146.53;;;17.75;68.97
5812;BME280;2932;52.400;9.558;2023-05-10T06:12:15;100157.72;;;17.79;68.46
5812;BME280;2932;52.400;9.558;2023-05-10T06:14:41;100150.31;;;18.17;68.92
5812;BME280;2932;52.400;9.558;2023-05-10T06:17:06;100151.50;;;18.19;68.29
5812;BME280;2932;52.400;9.558;2023-05-10T06:19:31;100152.47;;;17.88;69.68
5812;BME280;2932;52.400;9.558;2023-05-10T06:21:57;100164.09;;;17.83;69.94
5812;BME280;2932;52.400;9.558;2023-05-10T06:24:22;100156.00;;;18.03;69.88
5812;BME280;2932;52.400;9.558;2023-05-10T06:26:47;100163.16;;;18.07;69.82
5812;BME280;2932;52.400;9.558;2023-05-10T06:29:15;100158.31;;;18.15;69.23
5812;BME280;2932;52.400;9.558;2023-05-10T06:31:40;100157.13;;;18.12;69.63
5812;BME280;2932;52.400;9.558;2023-05-10T06:34:06;100155.50;;;18.22;70.14
5812;BME280;2932;52.400;9.558;2023-05-10T06:36:33;100155.06;;;18.27;70.28
5812;BME280;2932;52.400;9.558;2023-05-10T06:38:58;100155.50;;;18.18;69.81
5812;BME280;2932;52.400;9.558;2023-05-10T06:41:23;100158.72;;;18.17;70.19
5812;BME280;2932;52.400;9.558;2023-05-10T06:43:49;100154.78;;;18.04;70.58
5812;BME280;2932;52.400;9.558;2023-05-10T06:46:14;100161.16;;;18.11;70.56
5812;BME280;2932;52.400;9.558;2023-05-10T06:48:39;100166.38;;;18.06;70.89
5812;BME280;2932;52.400;9.558;2023-05-10T06:51:05;100166.34;;;18.09;70.88
5812;BME280;2932;52.400;9.558;2023-05-10T06:53:30;100172.75;;;18.10;71.41
5812;BME280;2932;52.400;9.558;2023-05-10T06:55:56;100171.06;;;18.26;71.38
5812;BME280;2932;52.400;9.558;2023-05-10T06:58:21;100179.47;;;18.26;71.82
5812;BME280;2932;52.400;9.558;2023-05-10T07:00:46;100180.66;;;18.29;72.03
5812;BME280;2932;52.400;9.558;2023-05-10T07:03:12;100186.94;;;18.44;71.29
5812;BME280;2932;52.400;9.558;2023-05-10T07:05:38;100195.81;;;18.35;71.99
5812;BME280;2932;52.400;9.558;2023-05-10T07:08:03;100197.47;;;18.29;71.60
5812;BME280;2932;52.400;9.558;2023-05-10T07:10:28;100205.88;;;18.29;72.00
5812;BME280;2932;52.400;9.558;2023-05-10T07:12:55;100202.63;;;18.34;72.41
5812;BME280;2932;52.400;9.558;2023-05-10T07:15:20;100209.44;;;18.37;72.61
5812;BME280;2932;52.400;9.558;2023-05-10T07:17:45;100208.22;;;18.38;73.02
5812;BME280;2932;52.400;9.558;2023-05-10T07:20:11;100212.75;;;18.07;73.55
5812;BME280;2932;52.400;9.558;2023-05-10T07:22:37;100221.69;;;17.77;74.74
5812;BME280;2932;52.400;9.558;2023-05-10T07:25:02;100226.84;;;17.89;75.01
5812;BME280;2932;52.400;9.558;2023-05-10T07:27:28;100227.63;;;17.96;74.64
5812;BME280;2932;52.400;9.558;2023-05-10T07:29:53;100223.28;;;17.74;74.89
5812;BME280;2932;52.400;9.558;2023-05-10T07:32:19;100237.63;;;17.94;75.20
5812;BME280;2932;52.400;9.558;2023-05-10T07:34:45;100233.34;;;17.43;77.19
5812;BME280;2932;52.400;9.558;2023-05-10T07:37:10;100238.09;;;17.57;77.96
5812;BME280;2932;52.400;9.558;2023-05-10T07:39:36;100240.94;;;17.39;78.84
5812;BME280;2932;52.400;9.558;2023-05-10T07:42:02;100245.72;;;16.85;81.36
5812;BME280;2932;52.400;9.558;2023-05-10T07:44:28;100244.53;;;16.93;81.52
5812;BME280;2932;52.400;9.558;2023-05-10T07:46:53;100244.94;;;16.85;82.45
5812;BME280;2932;52.400;9.558;2023-05-10T07:49:21;100251.72;;;16.91;83.28
5812;BME280;2932;52.400;9.558;2023-05-10T07:51:49;100256.91;;;16.67;83.54
5812;BME280;2932;52.400;9.558;2023-05-10T07:54:15;100250.09;;;16.83;83.23
5812;BME280;2932;52.400;9.558;2023-05-10T07:56:40;100253.31;;;16.88;83.65
5812;BME280;2932;52.400;9.558;2023-05-10T07:59:14;100262.41;;;16.57;84.66
5812;BME280;2932;52.400;9.558;2023-05-10T08:01:40;100268.41;;;16.55;84.90
5812;BME280;2932;52.400;9.558;2023-05-10T08:04:05;100273.56;;;16.53;85.05
5812;BME280;2932;52.400;9.558;2023-05-10T08:06:30;100278.03;;;16.69;84.83
5812;BME280;2932;52.400;9.558;2023-05-10T08:08:56;100279.59;;;16.59;85.30
5812;BME280;2932;52.400;9.558;2023-05-10T08:11:21;100280.44;;;16.81;85.14
5812;BME280;2932;52.400;9.558;2023-05-10T08:13:48;100282.06;;;16.99;84.51
5812;BME280;2932;52.400;9.558;2023-05-10T08:16:14;100292.06;;;16.97;84.35
5812;BME280;2932;52.400;9.558;2023-05-10T08:18:39;100296.88;;;17.07;84.19
5812;BME280;2932;52.400;9.558;2023-05-10T08:21:05;100296.31;;;16.55;84.87
5812;BME280;2932;52.400;9.558;2023-05-10T08:23:31;100303.09;;;16.54;85.84
5812;BME280;2932;52.400;9.558;2023-05-10T08:25:56;100305.34;;;16.13;86.80
5812;BME280;2932;52.400;9.558;2023-05-10T08:28:22;100301.47;;;16.43;86.29
5812;BME280;2932;52.400;9.558;2023-05-10T08:30:47;100300.00;;;16.74;85.83
5812;BME280;2932;52.400;9.558;2023-05-10T08:33:13;100309.91;;;16.60;85.81
5812;BME280;2932;52.400;9.558;2023-05-10T08:35:38;100309.56;;;16.69;85.13
5812;BME280;2932;52.400;9.558;2023-05-10T08:38:03;100304.84;;;17.02;84.49
5812;BME280;2932;52.400;9.558;2023-05-10T08:40:29;100307.09;;;16.57;84.76
5812;BME280;2932;52.400;9.558;2023-05-10T08:42:58;100313.03;;;16.38;85.81
5812;BME280;2932;52.400;9.558;2023-05-10T08:45:30;100313.41;;;16.32;85.28
5812;BME280;2932;52.400;9.558;2023-05-10T08:47:56;100312.91;;;16.13;86.34
5812;BME280;2932;52.400;9.558;2023-05-10T08:50:23;100316.84;;;16.01;86.85
5812;BME280;2932;52.400;9.558;2023-05-10T08:52:51;100318.97;;;16.29;85.92
5812;BME280;2932;52.400;9.558;2023-05-10T08:55:18;100325.78;;;16.35;85.09
5812;BME280;2932;52.400;9.558;2023-05-10T08:57:43;100332.97;;;16.32;86.14
5812;BME280;2932;52.400;9.558;2023-05-10T09:00:09;100331.69;;;16.19;86.82
5812;BME280;2932;52.400;9.558;2023-05-10T09:02:36;100334.00;;;16.07;86.07
5812;BME280;2932;52.400;9.558;2023-05-10T09:05:02;100335.75;;;16.40;85.99
5812;BME280;2932;52.400;9.558;2023-05-10T09:07:29;100342.28;;;16.65;84.96
5812;BME280;2932;52.400;9.558;2023-05-10T09:09:55;100348.69;;;16.73;84.67
5812;BME280;2932;52.400;9.558;2023-05-10T09:12:22;100347.16;;;16.96;84.01
5812;BME280;2932;52.400;9.558;2023-05-10T09:14:48;100347.41;;;16.59;84.88
5812;BME280;2932;52.400;9.558;2023-05-10T09:17:15;100360.72;;;16.91;84.29
5812;BME280;2932;52.400;9.558;2023-05-10T09:19:41;100351.88;;;16.67;83.79
5812;BME280;2932;52.400;9.558;2023-05-10T09:22:06;100353.06;;;16.66;84.21
5812;BME280;2932;52.400;9.558;2023-05-10T09:24:32;100363.16;;;17.07;83.62
5812;BME280;2932;52.400;9.558;2023-05-10T09:26:59;100366.69;;;16.89;83.54
5812;BME280;2932;52.400;9.558;2023-05-10T09:29:25;100364.66;;;16.72;83.94
5812;BME280;2932;52.400;9.558;2023-05-10T09:31:51;100370.34;;;17.08;83.02
5812;BME280;2932;52.400;9.558;2023-05-10T09:34:18;100363.50;;;16.94;82.75
5812;BME280;2932;52.400;9.558;2023-05-10T09:36:58;100369.56;;;17.25;83.22
5812;BME280;2932;52.400;9.558;2023-05-10T09:41:58;100379.97;;;17.60;80.53
5812;BME280;2932;52.400;9.558;2023-05-10T09:44:25;100380.78;;;17.53;80.91
5812;BME280;2932;52.400;9.558;2023-05-10T09:46:51;100386.34;;;17.32;81.31
5812;BME280;2932;52.400;9.558;2023-05-10T09:49:18;100379.97;;;17.53;81.43
5812;BME280;2932;52.400;9.558;2023-05-10T09:51:44;100387.94;;;17.26;81.99
5812;BME280;2932;52.400;9.558;2023-05-10T09:54:13;100386.34;;;17.32;82.07
5812;BME280;2932;52.400;9.558;2023-05-10T09:56:39;100390.38;;;17.49;81.97
5812;BME280;2932;52.400;9.558;2023-05-10T09:59:06;100392.31;;;17.30;81.97
5812;BME280;2932;52.400;9.558;2023-05-10T10:01:33;100396.72;;;17.31;81.16
5812;BME280;2932;52.400;9.558;2023-05-10T10:03:58;100403.97;;;17.89;80.62
5812;BME280;2932;52.400;9.558;2023-05-10T10:06:24;100399.94;;;18.19;80.00
5812;BME280;2932;52.400;9.558;2023-05-10T10:08:50;100400.31;;;18.21;78.95
5812;BME280;2932;52.400;9.558;2023-05-10T10:11:16;100397.53;;;18.24;77.61
5812;BME280;2932;52.400;9.558;2023-05-10T10:13:42;100404.31;;;18.30;78.00
5812;BME280;2932;52.400;9.558;2023-05-10T10:16:08;100407.03;;;18.48;77.81
5812;BME280;2932;52.400;9.558;2023-05-10T10:18:36;100404.72;;;18.22;77.52
5812;BME280;2932;52.400;9.558;2023-05-10T10:21:05;100409.50;;;18.32;78.27
5812;BME280;2932;52.400;9.558;2023-05-10T10:23:31;100411.91;;;18.33;77.68
5812;BME280;2932;52.400;9.558;2023-05-10T10:25:56;100406.31;;;18.33;77.21
5812;BME280;2932;52.400;9.558;2023-05-10T10:28:51;100413.53;;;18.06;77.97
5812;BME280;2932;52.400;9.558;2023-05-10T10:31:36;100406.69;;;18.36;77.55
5812;BME280;2932;52.400;9.558;2023-05-10T10:34:11;100415.19;;;17.82;78.32
5812;BME280;2932;52.400;9.558;2023-05-10T10:36:46;100408.72;;;18.31;77.37
5812;BME280;2932;52.400;9.558;2023-05-10T10:39:12;100408.31;;;18.37;76.63
5812;BME280;2932;52.400;9.558;2023-05-10T10:41:40;100410.13;;;18.86;75.95
5812;BME280;2932;52.400;9.558;2023-05-10T10:49:31;100411.81;;;18.55;76.62
5812;BME280;2932;52.400;9.558;2023-05-10T10:52:28;100402.97;;;18.78;76.16
5812;BME280;2932;52.400;9.558;2023-05-10T10:55:10;100401.34;;;18.80;75.65
5812;BME280;2932;52.400;9.558;2023-05-10T10:57:51;100407.66;;;18.98;75.67
5812;BME280;2932;52.400;9.558;2023-05-10T11:08:00;100399.19;;;19.72;72.81
5812;BME280;2932;52.400;9.558;2023-05-10T11:10:26;100399.94;;;20.20;71.64
5812;BME280;2932;52.400;9.558;2023-05-10T11:13:05;100402.38;;;19.74;70.45
5812;BME280;2932;52.400;9.558;2023-05-10T11:15:38;100403.41;;;19.94;70.75
5812;BME280;2932;52.400;9.558;2023-05-10T11:20:56;100400.78;;;20.55;69.86
5812;BME280;2932;52.400;9.558;2023-05-10T11:23:21;100399.25;;;21.11;67.75
5812;BME280;2932;52.400;9.558;2023-05-10T11:25:48;100407.25;;;20.48;66.72
5812;BME280;2932;52.400;9.558;2023-05-10T11:28:17;100404.06;;;21.11;67.02
5812;BME280;2932;52.400;9.558;2023-05-10T11:30:43;100407.72;;;21.38;64.22
5812;BME280;2932;52.400;9.558;2023-05-10T11:33:14;100405.94;;;22.21;62.25
5812;BME280;2932;52.400;9.558;2023-05-10T11:35:40;100405.38;;;21.33;63.55
5812;BME280;2932;52.400;9.558;2023-05-10T11:38:10;100404.84;;;21.92;64.68
5812;BME280;2932;52.400;9.558;2023-05-10T11:40:37;100411.38;;;21.35;64.24
5812;BME280;2932;52.400;9.558;2023-05-10T11:43:03;100408.78;;;21.71;64.24
5812;BME280;2932;52.400;9.558;2023-05-10T11:45:32;100403.00;;;22.48;62.67
5812;BME280;2932;52.400;9.558;2023-05-10T11:47:58;100405.44;;;22.03;63.47
5812;BME280;2932;52.400;9.558;2023-05-10T11:50:24;100416.47;;;22.80;61.89
5812;BME280;2932;52.400;9.558;2023-05-10T11:52:55;100404.16;;;22.31;62.58
5812;BME280;2932;52.400;9.558;2023-05-10T11:55:21;100410.09;;;22.13;62.38
5812;BME280;2932;52.400;9.558;2023-05-10T11:57:47;100414.81;;;21.96;62.78
5812;BME280;2932;52.400;9.558;2023-05-10T12:00:13;100421.22;;;21.20;63.83
5812;BME280;2932;52.400;9.558;2023-05-10T12:02:39;100419.94;;;21.78;64.60
5812;BME280;2932;52.400;9.558;2023-05-10T12:05:05;100415.44;;;22.51;62.73
5812;BME280;2932;52.400;9.558;2023-05-10T12:07:31;100407.25;;;22.56;61.43
5812;BME280;2932;52.400;9.558;2023-05-10T12:10:06;100417.34;;;22.14;62.07
5812;BME280;2932;52.400;9.558;2023-05-10T12:12:40;100413.16;;;22.22;63.43
5812;BME280;2932;52.400;9.558;2023-05-10T12:15:17;100424.75;;;22.28;63.01
5812;BME280;2932;52.400;9.558;2023-05-10T12:17:44;100423.69;;;21.45;64.81
5812;BME280;2932;52.400;9.558;2023-05-10T12:20:22;100415.53;;;21.77;63.94
5812;BME280;2932;52.400;9.558;2023-05-10T12:22:56;100425.97;;;21.26;64.02
5812;BME280;2932;52.400;9.558;2023-05-10T12:25:23;100426.13;;;21.16;64.69
5812;BME280;2932;52.400;9.558;2023-05-10T12:27:54;100423.91;;;21.57;65.53
5812;BME280;2932;52.400;9.558;2023-05-10T12:30:24;100418.47;;;21.70;65.13
5812;BME280;2932;52.400;9.558;2023-05-10T12:32:51;100423.22;;;21.19;66.17
5812;BME280;2932;52.400;9.558;2023-05-10T12:35:17;100421.38;;;20.79;67.35
5812;BME280;2932;52.400;9.558;2023-05-10T12:37:45;100427.13;;;20.98;66.00
5812;BME280;2932;52.400;9.558;2023-05-10T12:40:11;100423.81;;;21.07;66.45
5812;BME280;2932;52.400;9.558;2023-05-10T12:42:38;100429.66;;;21.20;65.35
5812;BME280;2932;52.400;9.558;2023-05-10T12:45:07;100437.28;;;21.23;65.34
5812;BME280;2932;52.400;9.558;2023-05-10T12:47:33;100435.41;;;21.67;64.44
5812;BME280;2932;52.400;9.558;2023-05-10T12:50:00;100430.22;;;21.38;65.06
5812;BME280;2932;52.400;9.558;2023-05-10T12:52:26;100442.00;;;21.83;63.54
5812;BME280;2932;52.400;9.558;2023-05-10T12:54:52;100435.97;;;22.51;62.05
5812;BME280;2932;52.400;9.558;2023-05-10T12:57:18;100451.66;;;22.52;62.02
5812;BME280;2932;52.400;9.558;2023-05-10T12:59:44;100443.06;;;23.19;61.06
5812;BME280;2932;52.400;9.558;2023-05-10T13:02:09;100450.97;;;22.25;60.47
5812;BME280;2932;52.400;9.558;2023-05-10T13:04:35;100441.47;;;21.92;62.58
5812;BME280;2932;52.400;9.558;2023-05-10T13:07:04;100451.78;;;21.75;63.07
5812;BME280;2932;52.400;9.558;2023-05-10T13:09:29;100448.47;;;22.31;62.32
5812;BME280;2932;52.400;9.558;2023-05-10T13:11:55;100453.72;;;22.05;62.70
5812;BME280;2932;52.400;9.558;2023-05-10T13:14:20;100449.13;;;21.91;62.29
5812;BME280;2932;52.400;9.558;2023-05-10T13:16:46;100452.75;;;22.15;62.71
5812;BME280;2932;52.400;9.558;2023-05-10T13:19:12;100456.66;;;22.65;62.19
5812;BME280;2932;52.400;9.558;2023-05-10T13:21:38;100458.50;;;22.94;60.94
5812;BME280;2932;52.400;9.558;2023-05-10T13:24:03;100456.63;;;22.45;60.83
5812;BME280;2932;52.400;9.558;2023-05-10T13:26:29;100458.94;;;22.50;60.75
5812;BME280;2932;52.400;9.558;2023-05-10T13:28:54;100455.22;;;22.76;60.86
5812;BME280;2932;52.400;9.558;2023-05-10T13:31:20;100449.28;;;22.71;61.34
5812;BME280;2932;52.400;9.558;2023-05-10T13:33:46;100458.28;;;22.85;60.97
5812;BME280;2932;52.400;9.558;2023-05-10T13:36:11;100457.34;;;22.92;61.01
5812;BME280;2932;52.400;9.558;2023-05-10T13:38:37;100462.47;;;22.97;61.04
5812;BME280;2932;52.400;9.558;2023-05-10T13:41:02;100456.75;;;22.81;61.15
5812;BME280;2932;52.400;9.558;2023-05-10T13:43:28;100462.97;;;22.72;60.87
5812;BME280;2932;52.400;9.558;2023-05-10T13:45:54;100462.09;;;22.75;61.20